Time;durP1;ratioP1;P1;durP2;ratioP2;P2;SDS_P1;SDS_P2;PMS_P1;PMS_P2;Temp;Humidity;BMP_temperature;BMP_pressure;BME280_temperature;BME280_humidity;BME280_pressure;Samples;Min_cycle;Max_cycle;Signal;HPM_P1;HPM_P2
2021/09/15 00:00:54;;;;;;;6.40;3.17;;;;;;;;;;5111313;28;20353;-68
2021/09/15 00:03:21;;;;;;;10.68;3.47;;;;;;;;;;5110879;28;20019;-68
2021/09/15 00:08:00;;;;;;;7.25;3.38;;;;;;;;;;5091539;27;20403;-67
2021/09/15 00:13:03;;;;;;;7.95;3.55;;;;;;;;;;5071507;28;20911;-67
2021/09/15 00:16:34;;;;;;;5.82;3.22;;;;;;;;;;5070933;28;20513;-68
2021/09/15 00:19:00;;;;;;;6.00;3.45;;;;;;;;;;5069767;28;20032;-68
2021/09/15 00:21:26;;;;;;;7.00;3.28;;;;;;;;;;5070711;28;20060;-68
2021/09/15 00:23:52;;;;;;;8.48;3.17;;;;;;;;;;5070396;28;20021;-68
2021/09/15 00:26:19;;;;;;;6.43;2.50;;;;;;;;;;5070846;28;20087;-68
2021/09/15 00:28:45;;;;;;;10.43;3.13;;;;;;;;;;5069342;28;20033;-68
2021/09/15 00:31:11;;;;;;;6.97;3.10;;;;;;;;;;5070157;28;20041;-68
2021/09/15 00:36:23;;;;;;;6.55;3.42;;;;;;;;;;5111572;27;20412;-67
2021/09/15 00:40:04;;;;;;;4.68;3.03;;;;;;;;;;5071348;28;20430;-67
2021/09/15 00:42:30;;;;;;;5.40;2.97;;;;;;;;;;5070885;28;20032;-67
2021/09/15 00:44:56;;;;;;;6.80;3.20;;;;;;;;;;5070386;28;20020;-68
2021/09/15 00:49:29;;;;;;;7.57;2.75;;;;;;;;;;5071706;28;20411;-69
2021/09/15 00:53:13;;;;;;;6.15;2.65;;;;;;;;;;5110873;27;20916;-68
2021/09/15 00:55:39;;;;;;;6.07;2.90;;;;;;;;;;5127243;28;20024;-68
2021/09/15 00:58:06;;;;;;;8.60;2.95;;;;;;;;;;5111508;28;20519;-68
2021/09/15 01:00:42;;;;;;;6.15;2.85;;;;;;;;;;5070810;28;20919;-67
2021/09/15 01:03:57;;;;;;;5.10;2.55;;;;;;;;;;5091503;28;20386;-68
2021/09/15 01:08:52;;;;;;;6.25;3.08;;;;;;;;;;5111602;27;20413;-67
2021/09/15 01:13:20;;;;;;;7.45;3.72;;;;;;;;;;5111465;27;20505;-69
2021/09/15 01:15:46;;;;;;;6.82;3.30;;;;;;;;;;5111318;28;20028;-69
2021/09/15 01:20:25;;;;;;;5.65;3.50;;;;;;;;;;5111245;27;20409;-69
2021/09/15 01:24:57;;;;;;;4.85;2.83;;;;;;;;;;5111863;27;20511;-69
2021/09/15 01:28:21;;;;;;;6.68;3.20;;;;;;;;;;5111093;27;20404;-69
2021/09/15 01:30:47;;;;;;;6.05;3.15;;;;;;;;;;5110065;28;20028;-67
2021/09/15 01:33:15;;;;;;;5.47;2.85;;;;;;;;;;5111268;28;20059;-68
2021/09/15 01:38:06;;;;;;;5.40;2.83;;;;;;;;;;5111976;27;20423;-67
2021/09/15 01:40:33;;;;;;;8.00;2.80;;;;;;;;;;5110918;28;20020;-67
2021/09/15 01:45:35;;;;;;;5.22;2.80;;;;;;;;;;5111457;27;20465;-66
2021/09/15 01:48:02;;;;;;;5.95;2.75;;;;;;;;;;5111092;28;20500;-67
2021/09/15 01:52:24;;;;;;;7.57;3.20;;;;;;;;;;5112148;27;20508;-67
2021/09/15 01:56:44;;;;;;;6.22;2.90;;;;;;;;;;5070818;28;20425;-67
2021/09/15 02:00:17;;;;;;;9.80;3.70;;;;;;;;;;5111559;27;20793;-67
2021/09/15 02:02:44;;;;;;;5.45;2.67;;;;;;;;;;5111086;28;20024;-69
2021/09/15 02:07:01;;;;;;;6.97;3.00;;;;;;;;;;5070824;28;20489;-69
2021/09/15 02:09:27;;;;;;;8.88;3.47;;;;;;;;;;5070402;28;20025;-67
2021/09/15 02:11:53;;;;;;;9.18;3.50;;;;;;;;;;5070750;28;20099;-69
2021/09/15 02:14:50;;;;;;;7.68;3.10;;;;;;;;;;5112151;27;20533;-68
2021/09/15 02:17:16;;;;;;;5.70;3.10;;;;;;;;;;5110985;28;20028;-68
2021/09/15 02:20:26;;;;;;;6.65;3.00;;;;;;;;;;5071399;28;20403;-67
2021/09/15 02:22:52;;;;;;;5.68;3.28;;;;;;;;;;5070388;28;20031;-68
2021/09/15 02:28:32;;;;;;;6.72;3.25;;;;;;;;;;5112140;27;20401;-68
2021/09/15 02:30:59;;;;;;;7.90;3.20;;;;;;;;;;5110963;28;20452;-68
2021/09/15 02:34:06;;;;;;;6.30;3.03;;;;;;;;;;5070766;28;20399;-68
2021/09/15 02:36:32;;;;;;;5.40;2.53;;;;;;;;;;5070786;28;20029;-68
2021/09/15 02:46:39;;;;;;;5.18;2.67;;;;;;;;;;5091770;27;20494;-67
2021/09/15 02:52:32;;;;;;;7.32;3.13;;;;;;;;;;5111156;27;20408;-69
2021/09/15 02:56:46;;;;;;;7.05;3.22;;;;;;;;;;5111745;27;20396;-67
2021/09/15 02:59:12;;;;;;;8.40;4.22;;;;;;;;;;5111039;28;20036;-68
2021/09/15 03:02:05;;;;;;;6.53;3.50;;;;;;;;;;5111411;27;20920;-67
2021/09/15 03:05:04;;;;;;;7.40;3.70;;;;;;;;;;5071095;28;20399;-67
2021/09/15 03:07:30;;;;;;;12.25;4.32;;;;;;;;;;5071088;28;20035;-67
2021/09/15 03:09:56;;;;;;;7.32;4.05;;;;;;;;;;5070675;28;20028;-67
2021/09/15 03:12:39;;;;;;;6.50;3.42;;;;;;;;;;5111240;27;20505;-68
2021/09/15 03:16:50;;;;;;;8.23;3.72;;;;;;;;;;5112176;27;20477;-67
2021/09/15 03:19:16;;;;;;;5.43;2.88;;;;;;;;;;5110989;28;20032;-67
2021/09/15 03:21:44;;;;;;;6.07;2.92;;;;;;;;;;5109960;28;20019;-68
2021/09/15 03:24:10;;;;;;;14.63;6.88;;;;;;;;;;5111260;28;20093;-68
2021/09/15 03:26:36;;;;;;;18.65;7.80;;;;;;;;;;5110807;28;20024;-68
2021/09/15 03:29:02;;;;;;;21.17;9.48;;;;;;;;;;5111425;28;20015;-68
2021/09/15 03:32:41;;;;;;;19.10;8.00;;;;;;;;;;5111597;27;20470;-67
2021/09/15 03:35:07;;;;;;;16.98;6.95;;;;;;;;;;5111003;28;20118;-67
2021/09/15 03:37:33;;;;;;;17.17;7.60;;;;;;;;;;5111295;28;20099;-69
2021/09/15 03:40:00;;;;;;;13.38;7.10;;;;;;;;;;5110950;28;20372;-67
2021/09/15 03:47:09;;;;;;;14.68;6.45;;;;;;;;;;5110936;27;20393;-69
2021/09/15 03:51:39;;;;;;;16.17;7.43;;;;;;;;;;5111344;27;20404;-69
2021/09/15 03:54:05;;;;;;;11.70;6.47;;;;;;;;;;5109747;28;20032;-67
2021/09/15 03:56:51;;;;;;;13.07;6.25;;;;;;;;;;5111892;27;20388;-69
2021/09/15 04:00:08;;;;;;;14.55;6.95;;;;;;;;;;5111628;27;20473;-68
2021/09/15 04:02:34;;;;;;;21.65;8.35;;;;;;;;;;5126770;28;20027;-69
2021/09/15 04:05:00;;;;;;;14.00;7.35;;;;;;;;;;5111636;28;20457;-70
2021/09/15 04:08:12;;;;;;;15.27;7.63;;;;;;;;;;5111010;27;20454;-69
2021/09/15 04:13:39;;;;;;;21.65;8.52;;;;;;;;;;5111928;27;20812;-70
2021/09/15 04:17:49;;;;;;;15.52;7.30;;;;;;;;;;5111923;27;20389;-69
2021/09/15 04:20:15;;;;;;;13.13;6.70;;;;;;;;;;5111422;28;20488;-70
2021/09/15 04:22:43;;;;;;;14.25;7.20;;;;;;;;;;5111050;28;20091;-70
2021/09/15 04:33:23;;;;;;;13.82;8.00;;;;;;;;;;5111435;28;20088;-68
2021/09/15 04:40:23;;;;;;;13.80;6.18;;;;;;;;;;5111389;27;20481;-68
2021/09/15 04:44:04;;;;;;;11.32;5.05;;;;;;;;;;5111250;27;20381;-68
2021/09/15 04:49:06;;;;;;;12.20;5.85;;;;;;;;;;5152775;27;21028;-69
2021/09/15 04:53:44;;;;;;;14.02;7.03;;;;;;;;;;5112006;27;20389;-67
2021/09/15 04:56:11;;;;;;;14.57;7.28;;;;;;;;;;5111900;28;20027;-67
2021/09/15 04:58:37;;;;;;;14.63;6.05;;;;;;;;;;5110925;28;20024;-67
2021/09/15 05:01:03;;;;;;;12.80;5.80;;;;;;;;;;5111199;28;20030;-68
2021/09/15 05:03:29;;;;;;;10.98;5.43;;;;;;;;;;5111208;28;20016;-68
2021/09/15 05:07:40;;;;;;;12.40;5.30;;;;;;;;;;5111801;27;20493;-71
2021/09/15 05:10:06;;;;;;;11.30;5.53;;;;;;;;;;5111223;28;20028;-72
2021/09/15 05:12:32;;;;;;;12.90;5.70;;;;;;;;;;5106893;28;20118;-71
2021/09/15 05:16:26;;;;;;;10.93;5.25;;;;;;;;;;5110250;27;20389;-72
2021/09/15 05:21:32;;;;;;;11.82;5.07;;;;;;;;;;5109507;27;20912;-71
2021/09/15 05:26:04;;;;;;;15.65;7.25;;;;;;;;;;5109656;27;20900;-73
2021/09/15 05:34:17;;;;;;;12.82;6.00;;;;;;;;;;5067665;28;20469;-76
2021/09/15 05:36:43;;;;;;;14.05;5.32;;;;;;;;;;5066935;28;20086;-75
2021/09/15 05:39:10;;;;;;;12.20;5.50;;;;;;;;;;5065822;28;20477;-74
2021/09/15 05:45:31;;;;;;;12.68;5.72;;;;;;;;;;5108545;27;20450;-74
2021/09/15 05:47:57;;;;;;;9.38;4.53;;;;;;;;;;5109694;28;20024;-72
2021/09/15 05:51:43;;;;;;;21.55;5.78;;;;;;;;;;5111077;27;20740;-73
2021/09/15 05:54:47;;;;;;;9.25;4.45;;;;;;;;;;5069545;28;20423;-71
2021/09/15 05:58:17;;;;;;;13.77;8.38;;;;;;;;;;5110471;27;20470;-72
2021/09/15 06:03:50;;;;;;;10.38;5.38;;;;;;;;;;5107944;27;20399;-73
2021/09/15 06:08:23;;;;;;;10.30;5.38;;;;;;;;;;5105932;27;20446;-74
2021/09/15 06:13:30;;;;;;;8.82;4.00;;;;;;;;;;5048685;28;20455;-73
2021/09/15 06:15:56;;;;;;;8.20;4.03;;;;;;;;;;5038806;28;20702;-74
2021/09/15 06:19:29;;;;;;;11.50;4.40;;;;;;;;;;5110611;27;20396;-71
2021/09/15 06:25:23;;;;;;;10.52;4.35;;;;;;;;;;5103714;27;20393;-71
2021/09/15 06:30:45;;;;;;;7.93;3.95;;;;;;;;;;5110284;27;20742;-75
2021/09/15 06:36:23;;;;;;;6.43;3.58;;;;;;;;;;5110413;27;20431;-76
2021/09/15 06:41:08;;;;;;;5.53;2.92;;;;;;;;;;5108633;27;20423;-74
2021/09/15 06:43:34;;;;;;;6.80;2.75;;;;;;;;;;5108480;28;20373;-77
2021/09/15 06:48:17;;;;;;;5.43;3.03;;;;;;;;;;5110903;27;20458;-72
2021/09/15 06:50:57;;;;;;;7.70;3.20;;;;;;;;;;5068469;28;20400;-74
2021/09/15 06:54:34;;;;;;;13.70;3.55;;;;;;;;;;5170587;27;20560;-74
2021/09/15 06:57:00;;;;;;;8.90;3.20;;;;;;;;;;5131986;27;20058;-73
2021/09/15 06:59:26;;;;;;;5.88;3.38;;;;;;;;;;5151799;27;20030;-76
2021/09/15 07:01:52;;;;;;;7.53;3.15;;;;;;;;;;5151539;27;20407;-72
2021/09/15 07:04:18;;;;;;;7.43;3.97;;;;;;;;;;5151338;27;20015;-77
2021/09/15 07:06:45;;;;;;;7.65;3.17;;;;;;;;;;5151885;27;20026;-78
2021/09/15 07:09:11;;;;;;;6.78;2.88;;;;;;;;;;5149225;27;20030;-81
2021/09/15 07:11:37;;;;;;;6.03;2.95;;;;;;;;;;5119321;27;20114;-79
2021/09/15 07:14:03;;;;;;;10.10;3.13;;;;;;;;;;5148707;27;20502;-74
2021/09/15 07:16:33;;;;;;;13.30;3.30;;;;;;;;;;5149024;27;20033;-74
2021/09/15 07:19:03;;;;;;;6.07;2.50;;;;;;;;;;5149032;27;20023;-69
2021/09/15 07:21:29;;;;;;;6.40;3.35;;;;;;;;;;5150891;27;20413;-70
2021/09/15 07:23:55;;;;;;;5.55;3.42;;;;;;;;;;5149102;27;20022;-77
2021/09/15 07:29:00;;;;;;;7.57;2.95;;;;;;;;;;5068806;28;20859;-67
2021/09/15 07:31:26;;;;;;;6.57;2.60;;;;;;;;;;5069737;28;20048;-73
2021/09/15 07:33:52;;;;;;;5.82;2.75;;;;;;;;;;5069090;28;20482;-73
2021/09/15 07:36:18;;;;;;;7.70;3.17;;;;;;;;;;5069688;28;20071;-72
2021/09/15 07:39:41;;;;;;;10.63;3.38;;;;;;;;;;5109906;27;20127;-72
2021/09/15 07:42:08;;;;;;;7.25;2.85;;;;;;;;;;5110901;28;20024;-70
2021/09/15 07:44:34;;;;;;;8.63;3.10;;;;;;;;;;5110862;28;20044;-72
2021/09/15 07:47:00;;;;;;;6.68;3.20;;;;;;;;;;5110723;28;20050;-75
2021/09/15 07:49:27;;;;;;;6.15;3.10;;;;;;;;;;5105834;28;20016;-71
2021/09/15 07:51:53;;;;;;;4.15;2.58;;;;;;;;;;5102305;28;20023;-71
2021/09/15 07:54:20;;;;;;;6.07;3.00;;;;;;;;;;5108562;28;20020;-72
2021/09/15 07:56:46;;;;;;;5.45;3.15;;;;;;;;;;5109850;28;20020;-70
2021/09/15 07:59:12;;;;;;;7.25;2.90;;;;;;;;;;5109409;28;20032;-73
2021/09/15 08:01:38;;;;;;;6.65;3.05;;;;;;;;;;5104747;28;20067;-71
2021/09/15 08:04:05;;;;;;;5.10;3.03;;;;;;;;;;5105635;28;20016;-71
2021/09/15 08:06:31;;;;;;;12.38;3.25;;;;;;;;;;5109568;28;20615;-70
2021/09/15 08:08:57;;;;;;;6.55;3.47;;;;;;;;;;5109276;28;20016;-71
2021/09/15 08:13:11;;;;;;;7.45;3.10;;;;;;;;;;5110393;27;21048;-72
2021/09/15 08:15:37;;;;;;;10.43;3.17;;;;;;;;;;5109529;28;20046;-71
2021/09/15 08:18:03;;;;;;;6.20;2.97;;;;;;;;;;5109200;28;20055;-70
2021/09/15 08:20:29;;;;;;;8.45;4.10;;;;;;;;;;5107109;28;20043;-70
2021/09/15 08:22:56;;;;;;;6.65;3.08;;;;;;;;;;5105604;28;20032;-72
2021/09/15 08:25:22;;;;;;;5.78;3.10;;;;;;;;;;5104615;28;20456;-70
2021/09/15 08:27:49;;;;;;;4.55;2.92;;;;;;;;;;5108944;28;20020;-72
2021/09/15 08:30:16;;;;;;;7.15;3.35;;;;;;;;;;5109376;28;20073;-71
2021/09/15 08:32:42;;;;;;;6.32;3.28;;;;;;;;;;5109732;28;20027;-70
2021/09/15 08:35:09;;;;;;;6.85;3.42;;;;;;;;;;5109969;28;20027;-70
2021/09/15 08:37:35;;;;;;;5.20;3.00;;;;;;;;;;5108012;28;20114;-70
2021/09/15 08:40:03;;;;;;;7.47;3.20;;;;;;;;;;5108164;28;20024;-70
2021/09/15 08:42:29;;;;;;;6.25;3.33;;;;;;;;;;5107139;28;20402;-70
2021/09/15 08:44:55;;;;;;;9.85;3.47;;;;;;;;;;5107470;28;20035;-71
2021/09/15 08:47:26;;;;;;;7.40;3.25;;;;;;;;;;5107567;28;20380;-71
2021/09/15 08:49:52;;;;;;;7.55;3.10;;;;;;;;;;5107745;28;20035;-72
2021/09/15 08:52:18;;;;;;;5.80;3.00;;;;;;;;;;5105930;28;20124;-76
2021/09/15 08:54:45;;;;;;;4.50;3.15;;;;;;;;;;5106764;28;20026;-77
2021/09/15 08:57:11;;;;;;;8.68;3.05;;;;;;;;;;5103472;28;20533;-75
2021/09/15 09:00:07;;;;;;;6.75;3.03;;;;;;;;;;5108458;27;20433;-75
2021/09/15 09:02:40;;;;;;;4.63;2.72;;;;;;;;;;5107449;28;20035;-72
2021/09/15 09:05:06;;;;;;;6.28;3.05;;;;;;;;;;5108536;28;20058;-71
2021/09/15 09:07:33;;;;;;;6.18;3.33;;;;;;;;;;5107733;28;20023;-71
2021/09/15 09:10:01;;;;;;;7.25;3.25;;;;;;;;;;5106325;28;20715;-74
2021/09/15 09:12:29;;;;;;;6.05;2.97;;;;;;;;;;5107963;28;20073;-72
2021/09/15 09:15:13;;;;;;;5.10;2.83;;;;;;;;;;5109440;28;20069;-71
2021/09/15 09:17:39;;;;;;;5.80;2.97;;;;;;;;;;5106920;28;20020;-71
2021/09/15 09:20:12;;;;;;;5.75;2.85;;;;;;;;;;5109195;28;20047;-73
2021/09/15 09:22:58;;;;;;;9.50;3.30;;;;;;;;;;5108633;28;20016;-71
2021/09/15 09:25:25;;;;;;;7.90;3.95;;;;;;;;;;5107357;28;20024;-70
2021/09/15 09:27:52;;;;;;;6.68;3.13;;;;;;;;;;5109912;28;20430;-74
2021/09/15 09:30:30;;;;;;;6.90;3.45;;;;;;;;;;5109705;28;20393;-72
2021/09/15 09:32:57;;;;;;;8.38;2.58;;;;;;;;;;5121406;28;20588;-77
2021/09/15 09:35:23;;;;;;;6.55;2.92;;;;;;;;;;5116829;28;20477;-73
2021/09/15 09:37:49;;;;;;;5.07;2.78;;;;;;;;;;5108707;28;20016;-72
2021/09/15 09:40:19;;;;;;;3.90;2.50;;;;;;;;;;5101424;28;20140;-74
2021/09/15 09:42:45;;;;;;;6.50;3.08;;;;;;;;;;5102182;28;20024;-75
2021/09/15 09:45:14;;;;;;;6.55;2.70;;;;;;;;;;5112851;28;20028;-71
2021/09/15 09:47:40;;;;;;;6.15;2.97;;;;;;;;;;5108861;28;20019;-73
2021/09/15 09:50:29;;;;;;;5.45;3.20;;;;;;;;;;5107879;28;20025;-72
2021/09/15 09:52:59;;;;;;;8.98;3.35;;;;;;;;;;5109046;28;20134;-73
2021/09/15 09:55:27;;;;;;;6.82;3.53;;;;;;;;;;5109870;28;20425;-74
2021/09/15 09:57:54;;;;;;;6.97;2.95;;;;;;;;;;5108605;28;20051;-76
2021/09/15 10:00:22;;;;;;;8.13;2.92;;;;;;;;;;5109544;28;20039;-75
2021/09/15 10:02:48;;;;;;;6.82;3.50;;;;;;;;;;5109344;28;20024;-75
2021/09/15 10:05:19;;;;;;;7.10;3.58;;;;;;;;;;5108063;28;20047;-74
2021/09/15 10:07:45;;;;;;;5.50;2.80;;;;;;;;;;5107890;28;20095;-73
2021/09/15 10:10:12;;;;;;;7.03;3.10;;;;;;;;;;5102146;28;20142;-73
2021/09/15 10:12:39;;;;;;;4.90;2.45;;;;;;;;;;5095420;28;20377;-76
2021/09/15 10:15:07;;;;;;;4.13;2.55;;;;;;;;;;5088927;28;20038;-69
2021/09/15 10:17:35;;;;;;;6.07;3.22;;;;;;;;;;5095766;28;20073;-69
2021/09/15 10:20:01;;;;;;;8.88;4.40;;;;;;;;;;5062877;28;20024;-69
2021/09/15 10:22:31;;;;;;;11.93;5.15;;;;;;;;;;5060134;28;20043;-69
2021/09/15 10:24:59;;;;;;;6.13;2.80;;;;;;;;;;5055910;28;20032;-70
2021/09/15 10:27:26;;;;;;;6.75;3.22;;;;;;;;;;5062303;28;20031;-67
2021/09/15 10:30:11;;;;;;;4.53;2.72;;;;;;;;;;5051877;28;20586;-68
2021/09/15 10:32:39;;;;;;;6.68;2.97;;;;;;;;;;5051479;28;20032;-70
2021/09/15 10:35:06;;;;;;;5.75;3.40;;;;;;;;;;5054281;28;20024;-70
2021/09/15 10:37:32;;;;;;;6.53;2.75;;;;;;;;;;5064304;28;21253;-70
2021/09/15 10:39:58;;;;;;;6.15;2.83;;;;;;;;;;5055638;28;21149;-69
2021/09/15 10:42:38;;;;;;;5.55;3.00;;;;;;;;;;5052775;28;20314;-66
2021/09/15 10:45:11;;;;;;;5.57;2.70;;;;;;;;;;5060867;28;20088;-69
2021/09/15 10:47:39;;;;;;;5.50;2.85;;;;;;;;;;5053816;28;20380;-70
2021/09/15 10:50:06;;;;;;;5.95;2.90;;;;;;;;;;5061484;28;20107;-72
2021/09/15 10:52:39;;;;;;;7.40;3.15;;;;;;;;;;5056801;28;20020;-70
2021/09/15 10:55:16;;;;;;;4.85;2.65;;;;;;;;;;5059411;28;20085;-70
2021/09/15 10:57:44;;;;;;;3.92;2.10;;;;;;;;;;5051245;28;20132;-69
2021/09/15 11:00:16;;;;;;;6.53;3.05;;;;;;;;;;5057520;28;20673;-66
2021/09/15 11:02:48;;;;;;;5.80;2.40;;;;;;;;;;5061732;28;20499;-70
2021/09/15 11:05:27;;;;;;;5.35;2.70;;;;;;;;;;5052820;28;20065;-71
2021/09/15 11:07:54;;;;;;;5.47;2.72;;;;;;;;;;5056783;28;20958;-69
2021/09/15 11:10:35;;;;;;;8.38;2.90;;;;;;;;;;5058832;28;21122;-68
2021/09/15 11:13:04;;;;;;;5.43;2.45;;;;;;;;;;5057402;28;20020;-73
2021/09/15 11:15:38;;;;;;;4.93;2.20;;;;;;;;;;5050402;28;20031;-66
2021/09/15 11:18:05;;;;;;;5.32;2.70;;;;;;;;;;5059834;28;20023;-66
2021/09/15 11:20:33;;;;;;;4.70;2.22;;;;;;;;;;5051792;28;20151;-68
2021/09/15 11:23:07;;;;;;;4.40;2.17;;;;;;;;;;5060816;28;20480;-71
2021/09/15 11:25:33;;;;;;;4.15;2.15;;;;;;;;;;5059244;28;20608;-68
2021/09/15 11:28:16;;;;;;;3.85;2.05;;;;;;;;;;5056001;28;20028;-74
2021/09/15 11:30:43;;;;;;;3.85;1.98;;;;;;;;;;5052034;28;20798;-76
2021/09/15 11:33:09;;;;;;;3.47;1.92;;;;;;;;;;5056192;28;20023;-75
2021/09/15 11:35:38;;;;;;;6.07;2.47;;;;;;;;;;5055029;28;20032;-76
2021/09/15 11:38:05;;;;;;;3.83;2.00;;;;;;;;;;5060228;28;20024;-76
2021/09/15 11:40:32;;;;;;;5.78;3.55;;;;;;;;;;5056030;28;20520;-75
2021/09/15 11:43:02;;;;;;;4.38;2.03;;;;;;;;;;5052653;28;20029;-77
2021/09/15 11:45:28;;;;;;;4.63;2.63;;;;;;;;;;5056806;28;20013;-74
2021/09/15 11:47:55;;;;;;;4.82;2.53;;;;;;;;;;5052808;28;20038;-71
2021/09/15 11:50:24;;;;;;;5.60;2.35;;;;;;;;;;5055835;28;20095;-74
2021/09/15 11:52:54;;;;;;;4.28;2.38;;;;;;;;;;5051552;28;21056;-76
2021/09/15 11:55:20;;;;;;;4.18;2.30;;;;;;;;;;5050291;28;20051;-79
2021/09/15 11:57:58;;;;;;;5.57;2.40;;;;;;;;;;5053205;28;20036;-79
2021/09/15 12:00:24;;;;;;;4.95;1.85;;;;;;;;;;5081015;28;20024;-77
2021/09/15 12:02:51;;;;;;;4.18;1.92;;;;;;;;;;5088665;28;20020;-76
2021/09/15 12:05:19;;;;;;;3.08;1.90;;;;;;;;;;5093679;28;20024;-73
2021/09/15 12:07:46;;;;;;;3.13;1.88;;;;;;;;;;5093603;28;20024;-74
2021/09/15 12:10:12;;;;;;;4.40;2.17;;;;;;;;;;5092744;28;20054;-78
2021/09/15 12:12:39;;;;;;;5.65;2.35;;;;;;;;;;5093855;28;20035;-74
2021/09/15 12:15:09;;;;;;;3.70;2.10;;;;;;;;;;5093590;28;20024;-71
2021/09/15 12:17:35;;;;;;;3.40;1.95;;;;;;;;;;5093847;28;20096;-75
2021/09/15 12:20:02;;;;;;;3.22;1.65;;;;;;;;;;5093846;28;20452;-75
2021/09/15 12:22:29;;;;;;;3.13;2.08;;;;;;;;;;5093118;28;20020;-76
2021/09/15 12:25:15;;;;;;;5.15;2.60;;;;;;;;;;5093671;28;20024;-73
2021/09/15 12:27:42;;;;;;;3.85;2.30;;;;;;;;;;5092163;28;20047;-76
2021/09/15 12:30:14;;;;;;;6.07;2.20;;;;;;;;;;5093594;28;20043;-74
2021/09/15 12:32:42;;;;;;;7.22;2.45;;;;;;;;;;5093331;28;20385;-78
2021/09/15 12:35:35;;;;;;;5.57;2.50;;;;;;;;;;5091969;28;20024;-80
2021/09/15 12:38:05;;;;;;;3.95;2.10;;;;;;;;;;5093273;28;20048;-74
2021/09/15 12:40:31;;;;;;;6.47;2.80;;;;;;;;;;5093613;28;20095;-76
2021/09/15 12:43:04;;;;;;;4.63;2.50;;;;;;;;;;5093060;28;20016;-73
2021/09/15 12:45:31;;;;;;;5.35;2.38;;;;;;;;;;5068216;28;21908;-74
2021/09/15 12:47:57;;;;;;;4.70;2.45;;;;;;;;;;5055049;28;20033;-71
2021/09/15 12:50:25;;;;;;;4.03;2.38;;;;;;;;;;5051757;28;20405;-72
2021/09/15 12:53:18;;;;;;;4.22;2.38;;;;;;;;;;5050991;28;20015;-74
2021/09/15 12:55:49;;;;;;;5.03;2.67;;;;;;;;;;5044742;28;20100;-74
2021/09/15 12:58:44;;;;;;;5.50;2.85;;;;;;;;;;5048459;28;20538;-76
2021/09/15 13:01:19;;;;;;;4.35;2.50;;;;;;;;;;5038321;28;20066;-66
2021/09/15 13:03:48;;;;;;;3.83;2.20;;;;;;;;;;5053899;28;20032;-68
2021/09/15 13:06:18;;;;;;;4.70;2.35;;;;;;;;;;5047285;28;20480;-69
2021/09/15 13:08:48;;;;;;;4.78;2.40;;;;;;;;;;5052276;28;20546;-68
2021/09/15 13:11:15;;;;;;;5.18;2.65;;;;;;;;;;5049460;28;20073;-69
2021/09/15 13:13:41;;;;;;;3.97;2.33;;;;;;;;;;5054389;28;20016;-69
2021/09/15 13:16:07;;;;;;;4.07;2.55;;;;;;;;;;5051913;28;20031;-69
2021/09/15 13:18:34;;;;;;;5.00;2.25;;;;;;;;;;5053170;28;20038;-69
2021/09/15 13:21:00;;;;;;;5.32;2.35;;;;;;;;;;5045473;28;20810;-68
2021/09/15 13:23:26;;;;;;;3.95;2.30;;;;;;;;;;5049449;28;20064;-68
2021/09/15 13:25:52;;;;;;;3.25;1.95;;;;;;;;;;5050416;28;20024;-67
2021/09/15 13:28:19;;;;;;;3.53;2.03;;;;;;;;;;5054330;28;20028;-66
2021/09/15 13:30:45;;;;;;;5.60;2.10;;;;;;;;;;5057084;28;20058;-67
2021/09/15 13:33:11;;;;;;;5.55;2.90;;;;;;;;;;5055469;28;20661;-68
2021/09/15 13:35:37;;;;;;;4.82;2.58;;;;;;;;;;5055864;28;20068;-69
2021/09/15 13:38:03;;;;;;;6.15;2.90;;;;;;;;;;5089204;28;20420;-68
2021/09/15 13:40:30;;;;;;;4.43;2.40;;;;;;;;;;5092286;28;20024;-69
2021/09/15 13:42:56;;;;;;;5.68;2.53;;;;;;;;;;5091173;28;20074;-69
2021/09/15 13:45:22;;;;;;;6.05;2.58;;;;;;;;;;5092979;28;20039;-69
2021/09/15 13:47:48;;;;;;;3.83;2.28;;;;;;;;;;5096574;28;20353;-68
2021/09/15 13:50:15;;;;;;;4.10;1.95;;;;;;;;;;5096907;28;20099;-69
2021/09/15 13:52:42;;;;;;;5.43;2.25;;;;;;;;;;5096460;28;20484;-69
2021/09/15 13:55:08;;;;;;;3.30;1.83;;;;;;;;;;5096769;28;20051;-69
2021/09/15 13:57:34;;;;;;;5.03;2.28;;;;;;;;;;5097084;28;20097;-69
2021/09/15 14:00:00;;;;;;;6.65;3.28;;;;;;;;;;5095189;28;20067;-68
2021/09/15 14:02:27;;;;;;;5.97;2.78;;;;;;;;;;5096631;28;20380;-69
2021/09/15 14:04:53;;;;;;;8.30;2.67;;;;;;;;;;5096316;28;20071;-69
2021/09/15 14:07:19;;;;;;;5.78;3.05;;;;;;;;;;5095523;28;20077;-68
2021/09/15 14:09:45;;;;;;;6.50;2.40;;;;;;;;;;5096392;28;20035;-69
2021/09/15 14:12:11;;;;;;;4.55;2.55;;;;;;;;;;5094638;28;20024;-68
2021/09/15 14:14:38;;;;;;;4.30;2.17;;;;;;;;;;5095379;28;20388;-68
2021/09/15 14:17:04;;;;;;;3.50;2.00;;;;;;;;;;5096439;28;20103;-69
2021/09/15 14:19:30;;;;;;;2.95;1.90;;;;;;;;;;5096254;28;20039;-69
2021/09/15 14:21:56;;;;;;;3.45;2.03;;;;;;;;;;5095916;28;20016;-69
2021/09/15 14:24:22;;;;;;;5.72;2.00;;;;;;;;;;5096482;28;20103;-68
2021/09/15 14:26:49;;;;;;;3.00;1.95;;;;;;;;;;5096244;28;20023;-69
2021/09/15 14:29:15;;;;;;;3.20;1.83;;;;;;;;;;5095914;28;20480;-69
2021/09/15 14:31:41;;;;;;;3.47;1.73;;;;;;;;;;5096276;28;20028;-69
2021/09/15 14:34:07;;;;;;;3.28;1.83;;;;;;;;;;5094541;28;20027;-69
2021/09/15 14:36:33;;;;;;;4.38;1.90;;;;;;;;;;5094781;28;20016;-69
2021/09/15 14:39:00;;;;;;;4.78;1.85;;;;;;;;;;5095914;28;20488;-70
2021/09/15 14:41:26;;;;;;;3.10;2.00;;;;;;;;;;5095562;28;20024;-69
2021/09/15 14:43:52;;;;;;;5.90;1.88;;;;;;;;;;5094590;28;20032;-70
2021/09/15 14:46:19;;;;;;;3.78;2.00;;;;;;;;;;5095861;28;20024;-69
2021/09/15 14:48:45;;;;;;;4.05;2.13;;;;;;;;;;5095301;28;20024;-69
2021/09/15 14:51:11;;;;;;;4.68;2.33;;;;;;;;;;5095699;28;20043;-69
2021/09/15 14:53:37;;;;;;;3.60;2.00;;;;;;;;;;5095767;28;20032;-70
2021/09/15 14:56:03;;;;;;;7.50;2.83;;;;;;;;;;5095081;28;20050;-70
2021/09/15 14:58:30;;;;;;;2.47;1.90;;;;;;;;;;5095383;28;20056;-69
2021/09/15 15:00:58;;;;;;;8.10;2.22;;;;;;;;;;5095718;28;20368;-70
2021/09/15 15:03:24;;;;;;;3.67;1.95;;;;;;;;;;5095269;28;20020;-69
2021/09/15 15:05:50;;;;;;;3.78;1.95;;;;;;;;;;5095423;28;20020;-71
2021/09/15 15:08:16;;;;;;;5.30;2.58;;;;;;;;;;5095357;28;20044;-72
2021/09/15 15:10:42;;;;;;;4.65;2.35;;;;;;;;;;5094980;28;20046;-70
2021/09/15 15:13:09;;;;;;;4.47;2.17;;;;;;;;;;5095265;28;20024;-71
2021/09/15 15:15:35;;;;;;;4.30;2.33;;;;;;;;;;5095260;28;20456;-70
2021/09/15 15:18:01;;;;;;;5.00;2.60;;;;;;;;;;5094823;28;20027;-70
2021/09/15 15:20:27;;;;;;;6.47;2.40;;;;;;;;;;5093809;28;20040;-69
2021/09/15 15:22:54;;;;;;;9.05;2.53;;;;;;;;;;5095173;28;20489;-69
2021/09/15 15:25:20;;;;;;;4.78;2.35;;;;;;;;;;5094601;28;20046;-71
2021/09/15 15:27:47;;;;;;;5.05;2.15;;;;;;;;;;5095064;28;20384;-70
2021/09/15 15:30:15;;;;;;;5.57;2.38;;;;;;;;;;5094979;28;20035;-72
2021/09/15 15:32:42;;;;;;;4.13;2.33;;;;;;;;;;5094502;28;20503;-72
2021/09/15 15:35:10;;;;;;;5.07;2.55;;;;;;;;;;5094999;28;20020;-71
2021/09/15 15:37:37;;;;;;;6.90;2.40;;;;;;;;;;5094512;28;20425;-74
2021/09/15 15:40:05;;;;;;;5.32;2.38;;;;;;;;;;5094923;28;20063;-71
2021/09/15 15:42:31;;;;;;;4.95;2.50;;;;;;;;;;5094672;28;20030;-69
2021/09/15 15:44:58;;;;;;;4.30;2.38;;;;;;;;;;5094177;28;20024;-71
2021/09/15 15:47:24;;;;;;;5.43;2.53;;;;;;;;;;5094605;28;20095;-70
2021/09/15 15:49:50;;;;;;;7.18;3.42;;;;;;;;;;5095021;28;20028;-70
2021/09/15 15:52:18;;;;;;;6.20;3.05;;;;;;;;;;5094268;28;20545;-70
2021/09/15 15:54:44;;;;;;;4.93;2.25;;;;;;;;;;5094789;28;20073;-73
2021/09/15 15:57:10;;;;;;;4.07;2.28;;;;;;;;;;5093111;28;20415;-69
2021/09/15 15:59:36;;;;;;;4.30;2.40;;;;;;;;;;5092436;28;20059;-71
2021/09/15 16:02:03;;;;;;;9.52;3.05;;;;;;;;;;5094276;28;20488;-71
2021/09/15 16:04:33;;;;;;;8.32;3.60;;;;;;;;;;5094237;28;20436;-69
2021/09/15 16:07:00;;;;;;;3.35;1.90;;;;;;;;;;5093921;28;20099;-73
2021/09/15 16:09:26;;;;;;;3.10;1.85;;;;;;;;;;5093668;28;20024;-69
2021/09/15 16:11:53;;;;;;;6.78;2.50;;;;;;;;;;5092948;28;20024;-71
2021/09/15 16:14:19;;;;;;;3.00;1.77;;;;;;;;;;5093612;28;20081;-70
2021/09/15 16:16:45;;;;;;;6.57;2.55;;;;;;;;;;5093973;28;20024;-72
2021/09/15 16:19:11;;;;;;;3.55;2.00;;;;;;;;;;5094008;28;20039;-68
2021/09/15 16:21:37;;;;;;;7.75;1.85;;;;;;;;;;5093700;28;20042;-70
2021/09/15 16:24:04;;;;;;;3.85;2.20;;;;;;;;;;5092699;28;20028;-69
2021/09/15 16:26:30;;;;;;;3.40;1.80;;;;;;;;;;5094003;28;20468;-69
2021/09/15 16:28:56;;;;;;;4.32;2.00;;;;;;;;;;5093499;28;20393;-69
2021/09/15 16:31:22;;;;;;;3.08;1.88;;;;;;;;;;5094382;28;20028;-69
2021/09/15 16:33:49;;;;;;;5.38;2.30;;;;;;;;;;5092180;28;20376;-69
2021/09/15 16:36:15;;;;;;;5.57;2.33;;;;;;;;;;5093953;28;20107;-69
2021/09/15 16:38:41;;;;;;;13.02;2.60;;;;;;;;;;5093730;28;20415;-69
2021/09/15 16:41:07;;;;;;;5.40;2.50;;;;;;;;;;5093664;28;20035;-69
2021/09/15 16:43:34;;;;;;;6.45;2.72;;;;;;;;;;5093657;28;20050;-69
2021/09/15 16:46:00;;;;;;;5.15;2.63;;;;;;;;;;5093692;28;20028;-69
2021/09/15 16:48:26;;;;;;;7.03;2.50;;;;;;;;;;5093302;28;20024;-68
2021/09/15 16:50:54;;;;;;;4.28;2.50;;;;;;;;;;5093519;28;20032;-68
2021/09/15 16:53:22;;;;;;;4.53;2.28;;;;;;;;;;5093580;28;20020;-68
2021/09/15 16:55:48;;;;;;;5.22;2.50;;;;;;;;;;5093343;28;20024;-68
2021/09/15 16:58:14;;;;;;;3.83;2.13;;;;;;;;;;5091948;28;20044;-69
2021/09/15 17:00:40;;;;;;;6.55;2.47;;;;;;;;;;5092239;28;20028;-68
2021/09/15 17:03:07;;;;;;;3.22;2.00;;;;;;;;;;5093193;28;20023;-68